sensor_id;sensor_type;location;lat;lon;timestamp;temperature;humidity
3492;DHT22;1760;52.480;13.422;2024-01-15T00:00:31;2.90;99.90
3492;DHT22;1760;52.480;13.422;2024-01-15T00:02:58;2.90;99.90
3492;DHT22;1760;52.480;13.422;2024-01-15T00:05:25;2.90;99.90
3492;DHT22;1760;52.480;13.422;2024-01-15T00:07:52;2.90;99.90
3492;DHT22;1760;52.480;13.422;2024-01-15T00:10:19;2.90;99.90
3492;DHT22;1760;52.480;13.422;2024-01-15T00:12:46;2.80;99.90
3492;DHT22;1760;52.480;13.422;2024-01-15T00:15:14;2.80;99.90
3492;DHT22;1760;52.480;13.422;2024-01-15T00:17:41;2.70;99.90
3492;DHT22;1760;52.480;13.422;2024-01-15T00:20:09;2.70;99.90
3492;DHT22;1760;52.480;13.422;2024-01-15T00:22:36;2.70;99.90
3492;DHT22;1760;52.480;13.422;2024-01-15T00:25:03;2.70;99.90
3492;DHT22;1760;52.480;13.422;2024-01-15T00:27:30;2.70;99.90
3492;DHT22;1760;52.480;13.422;2024-01-15T00:29:57;2.70;99.90
3492;DHT22;1760;52.480;13.422;2024-01-15T00:32:26;2.70;99.90
3492;DHT22;1760;52.480;13.422;2024-01-15T00:34:53;2.70;99.90
3492;DHT22;1760;52.480;13.422;2024-01-15T00:37:19;2.70;99.90
3492;DHT22;1760;52.480;13.422;2024-01-15T00:39:46;2.70;99.90
3492;DHT22;1760;52.480;13.422;2024-01-15T00:42:13;2.70;99.90
3492;DHT22;1760;52.480;13.422;2024-01-15T00:44:40;2.80;99.90
3492;DHT22;1760;52.480;13.422;2024-01-15T00:47:10;2.80;99.90
3492;DHT22;1760;52.480;13.422;2024-01-15T00:49:38;2.80;99.90
3492;DHT22;1760;52.480;13.422;2024-01-15T00:52:05;2.80;99.90
3492;DHT22;1760;52.480;13.422;2024-01-15T00:54:32;2.80;99.90
3492;DHT22;1760;52.480;13.422;2024-01-15T00:57:00;2.80;99.90
3492;DHT22;1760;52.480;13.422;2024-01-15T00:59:28;2.80;99.90
3492;DHT22;1760;52.480;13.422;2024-01-15T01:01:53;2.80;99.90
3492;DHT22;1760;52.480;13.422;2024-01-15T01:04:20;2.80;99.90
3492;DHT22;1760;52.480;13.422;2024-01-15T01:06:49;2.80;99.90
3492;DHT22;1760;52.480;13.422;2024-01-15T01:09:16;2.80;99.90
3492;DHT22;1760;52.480;13.422;2024-01-15T01:11:42;2.70;99.90
3492;DHT22;1760;52.480;13.422;2024-01-15T01:14:09;2.70;99.90
3492;DHT22;1760;52.480;13.422;2024-01-15T01:16:36;2.60;99.90
3492;DHT22;1760;52.480;13.422;2024-01-15T01:19:04;2.60;99.90
3492;DHT22;1760;52.480;13.422;2024-01-15T01:21:32;2.60;99.90
3492;DHT22;1760;52.480;13.422;2024-01-15T01:24:00;2.60;99.90
3492;DHT22;1760;52.480;13.422;2024-01-15T01:26:27;2.60;99.90
3492;DHT22;1760;52.480;13.422;2024-01-15T01:28:54;2.50;99.90
3492;DHT22;1760;52.480;13.422;2024-01-15T01:31:21;2.50;99.90
3492;DHT22;1760;52.480;13.422;2024-01-15T01:33:48;2.50;99.90
3492;DHT22;1760;52.480;13.422;2024-01-15T01:36:15;2.50;99.90
3492;DHT22;1760;52.480;13.422;2024-01-15T01:38:42;2.40;99.90
3492;DHT22;1760;52.480;13.422;2024-01-15T01:41:10;2.40;99.90
3492;DHT22;1760;52.480;13.422;2024-01-15T01:43:37;2.40;99.90
3492;DHT22;1760;52.480;13.422;2024-01-15T01:46:05;2.30;99.90
3492;DHT22;1760;52.480;13.422;2024-01-15T01:48:33;2.30;99.90
3492;DHT22;1760;52.480;13.422;2024-01-15T01:51:02;2.20;99.90
3492;DHT22;1760;52.480;13.422;2024-01-15T01:53:29;2.20;99.90
3492;DHT22;1760;52.480;13.422;2024-01-15T01:55:58;2.20;99.90
3492;DHT22;1760;52.480;13.422;2024-01-15T01:58:28;2.10;99.90
3492;DHT22;1760;52.480;13.422;2024-01-15T02:00:55;2.10;99.90
3492;DHT22;1760;52.480;13.422;2024-01-15T02:03:22;2.10;99.90
3492;DHT22;1760;52.480;13.422;2024-01-15T02:05:49;2.10;99.90
3492;DHT22;1760;52.480;13.422;2024-01-15T02:08:17;2.10;99.90
3492;DHT22;1760;52.480;13.422;2024-01-15T02:10:44;2.10;99.90
3492;DHT22;1760;52.480;13.422;2024-01-15T02:13:11;2.10;99.90
3492;DHT22;1760;52.480;13.422;2024-01-15T02:15:40;2.10;99.90
3492;DHT22;1760;52.480;13.422;2024-01-15T02:18:07;2.20;99.90
3492;DHT22;1760;52.480;13.422;2024-01-15T02:20:34;2.20;99.90
3492;DHT22;1760;52.480;13.422;2024-01-15T02:23:08;2.20;99.90
3492;DHT22;1760;52.480;13.422;2024-01-15T02:25:37;2.20;99.90
3492;DHT22;1760;52.480;13.422;2024-01-15T02:28:06;2.20;99.90
3492;DHT22;1760;52.480;13.422;2024-01-15T02:30:37;2.20;99.90
3492;DHT22;1760;52.480;13.422;2024-01-15T02:33:04;2.20;99.90
3492;DHT22;1760;52.480;13.422;2024-01-15T02:35:31;2.20;99.90
3492;DHT22;1760;52.480;13.422;2024-01-15T02:37:59;2.20;99.90
3492;DHT22;1760;52.480;13.422;2024-01-15T02:40:27;2.30;99.90
3492;DHT22;1760;52.480;13.422;2024-01-15T02:42:54;2.30;99.90
3492;DHT22;1760;52.480;13.422;2024-01-15T02:45:21;2.30;99.90
3492;DHT22;1760;52.480;13.422;2024-01-15T02:47:48;2.30;99.90
3492;DHT22;1760;52.480;13.422;2024-01-15T02:50:16;2.30;99.90
3492;DHT22;1760;52.480;13.422;2024-01-15T02:52:43;2.30;99.90
3492;DHT22;1760;52.480;13.422;2024-01-15T02:55:10;2.30;99.90
3492;DHT22;1760;52.480;13.422;2024-01-15T02:57:38;2.30;99.90
3492;DHT22;1760;52.480;13.422;2024-01-15T03:00:06;2.30;99.90
3492;DHT22;1760;52.480;13.422;2024-01-15T03:02:36;2.40;99.90
3492;DHT22;1760;52.480;13.422;2024-01-15T03:05:05;2.40;99.90
3492;DHT22;1760;52.480;13.422;2024-01-15T03:07:32;2.40;99.90
3492;DHT22;1760;52.480;13.422;2024-01-15T03:09:59;2.30;99.90
3492;DHT22;1760;52.480;13.422;2024-01-15T03:12:26;2.40;99.90
3492;DHT22;1760;52.480;13.422;2024-01-15T03:14:54;2.40;99.90
3492;DHT22;1760;52.480;13.422;2024-01-15T03:17:21;2.40;99.90
3492;DHT22;1760;52.480;13.422;2024-01-15T03:19:48;2.40;99.90
3492;DHT22;1760;52.480;13.422;2024-01-15T03:22:15;2.40;99.90
3492;DHT22;1760;52.480;13.422;2024-01-15T03:24:42;2.40;99.90
3492;DHT22;1760;52.480;13.422;2024-01-15T03:27:09;2.40;99.90
3492;DHT22;1760;52.480;13.422;2024-01-15T03:29:36;2.40;99.90
3492;DHT22;1760;52.480;13.422;2024-01-15T03:32:04;2.40;99.90
3492;DHT22;1760;52.480;13.422;2024-01-15T03:34:31;2.40;99.90
3492;DHT22;1760;52.480;13.422;2024-01-15T03:36:58;2.40;99.90
3492;DHT22;1760;52.480;13.422;2024-01-15T03:39:25;2.40;99.90
3492;DHT22;1760;52.480;13.422;2024-01-15T03:41:52;2.40;99.90
3492;DHT22;1760;52.480;13.422;2024-01-15T03:44:19;2.40;99.90
3492;DHT22;1760;52.480;13.422;2024-01-15T03:46:46;2.40;99.90
3492;DHT22;1760;52.480;13.422;2024-01-15T03:49:14;2.40;99.90
3492;DHT22;1760;52.480;13.422;2024-01-15T03:51:41;2.30;99.90
3492;DHT22;1760;52.480;13.422;2024-01-15T03:54:08;2.30;99.90
3492;DHT22;1760;52.480;13.422;2024-01-15T03:56:34;2.40;99.90
3492;DHT22;1760;52.480;13.422;2024-01-15T03:59:01;2.40;99.90
3492;DHT22;1760;52.480;13.422;2024-01-15T04:01:28;2.40;99.90
3492;DHT22;1760;52.480;13.422;2024-01-15T04:03:55;2.40;99.90
3492;DHT22;1760;52.480;13.422;2024-01-15T04:06:24;2.40;99.90
3492;DHT22;1760;52.480;13.422;2024-01-15T04:08:50;2.40;99.90
3492;DHT22;1760;52.480;13.422;2024-01-15T04:11:17;2.40;99.90
3492;DHT22;1760;52.480;13.422;2024-01-15T04:13:46;2.40;99.90
3492;DHT22;1760;52.480;13.422;2024-01-15T04:16:17;2.40;99.90
3492;DHT22;1760;52.480;13.422;2024-01-15T04:18:47;2.40;99.90
3492;DHT22;1760;52.480;13.422;2024-01-15T04:21:14;2.40;99.90
3492;DHT22;1760;52.480;13.422;2024-01-15T04:23:42;2.40;99.90
3492;DHT22;1760;52.480;13.422;2024-01-15T04:26:09;2.40;99.90
3492;DHT22;1760;52.480;13.422;2024-01-15T04:28:35;2.40;99.90
3492;DHT22;1760;52.480;13.422;2024-01-15T04:31:02;2.40;99.90
3492;DHT22;1760;52.480;13.422;2024-01-15T04:33:29;2.40;99.90
3492;DHT22;1760;52.480;13.422;2024-01-15T04:35:58;2.40;99.90
3492;DHT22;1760;52.480;13.422;2024-01-15T04:38:27;2.40;99.90
3492;DHT22;1760;52.480;13.422;2024-01-15T04:40:55;2.40;99.90
3492;DHT22;1760;52.480;13.422;2024-01-15T04:43:22;2.40;99.90
3492;DHT22;1760;52.480;13.422;2024-01-15T04:45:49;2.40;99.90
3492;DHT22;1760;52.480;13.422;2024-01-15T04:48:16;2.50;99.90
3492;DHT22;1760;52.480;13.422;2024-01-15T04:50:43;2.50;99.90
3492;DHT22;1760;52.480;13.422;2024-01-15T04:53:10;2.50;99.90
3492;DHT22;1760;52.480;13.422;2024-01-15T04:55:37;2.50;99.90
3492;DHT22;1760;52.480;13.422;2024-01-15T04:58:06;2.50;99.90
3492;DHT22;1760;52.480;13.422;2024-01-15T05:00:32;2.50;99.90
3492;DHT22;1760;52.480;13.422;2024-01-15T05:03:01;2.50;99.90
3492;DHT22;1760;52.480;13.422;2024-01-15T05:05:28;2.50;99.90
3492;DHT22;1760;52.480;13.422;2024-01-15T05:07:54;2.50;99.90
3492;DHT22;1760;52.480;13.422;2024-01-15T05:10:23;2.50;99.90
3492;DHT22;1760;52.480;13.422;2024-01-15T05:12:50;2.50;99.90
3492;DHT22;1760;52.480;13.422;2024-01-15T05:15:18;2.50;99.90
3492;DHT22;1760;52.480;13.422;2024-01-15T05:17:45;2.50;99.90
3492;DHT22;1760;52.480;13.422;2024-01-15T05:20:12;2.50;99.90
3492;DHT22;1760;52.480;13.422;2024-01-15T05:22:39;2.60;99.90
3492;DHT22;1760;52.480;13.422;2024-01-15T05:25:06;2.50;99.90
3492;DHT22;1760;52.480;13.422;2024-01-15T05:27:33;2.50;99.90
3492;DHT22;1760;52.480;13.422;2024-01-15T05:30:00;2.50;99.90
3492;DHT22;1760;52.480;13.422;2024-01-15T05:32:28;2.50;99.90
3492;DHT22;1760;52.480;13.422;2024-01-15T05:34:55;2.50;99.90
3492;DHT22;1760;52.480;13.422;2024-01-15T05:37:22;2.60;99.90
3492;DHT22;1760;52.480;13.422;2024-01-15T05:39:49;2.60;99.90
3492;DHT22;1760;52.480;13.422;2024-01-15T05:42:15;2.60;99.90
3492;DHT22;1760;52.480;13.422;2024-01-15T05:44:43;2.60;99.90
3492;DHT22;1760;52.480;13.422;2024-01-15T05:47:09;2.60;99.90
3492;DHT22;1760;52.480;13.422;2024-01-15T05:49:38;2.60;99.90
3492;DHT22;1760;52.480;13.422;2024-01-15T05:52:05;2.70;99.90
3492;DHT22;1760;52.480;13.422;2024-01-15T05:54:32;2.70;99.90
3492;DHT22;1760;52.480;13.422;2024-01-15T05:56:59;2.70;99.90
3492;DHT22;1760;52.480;13.422;2024-01-15T05:59:26;2.70;99.90
3492;DHT22;1760;52.480;13.422;2024-01-15T06:01:53;2.70;99.90
3492;DHT22;1760;52.480;13.422;2024-01-15T06:04:20;2.60;99.90
3492;DHT22;1760;52.480;13.422;2024-01-15T06:06:49;2.60;99.90
3492;DHT22;1760;52.480;13.422;2024-01-15T06:09:15;2.50;99.90
3492;DHT22;1760;52.480;13.422;2024-01-15T06:11:43;2.50;99.90
3492;DHT22;1760;52.480;13.422;2024-01-15T06:14:09;2.40;99.90
3492;DHT22;1760;52.480;13.422;2024-01-15T06:16:36;2.40;99.90
3492;DHT22;1760;52.480;13.422;2024-01-15T06:19:03;2.40;99.90
3492;DHT22;1760;52.480;13.422;2024-01-15T06:21:30;2.50;99.90
3492;DHT22;1760;52.480;13.422;2024-01-15T06:24:01;2.50;99.90
3492;DHT22;1760;52.480;13.422;2024-01-15T06:26:27;2.50;99.90
3492;DHT22;1760;52.480;13.422;2024-01-15T06:28:54;2.40;99.90
3492;DHT22;1760;52.480;13.422;2024-01-15T06:31:21;2.40;99.90
3492;DHT22;1760;52.480;13.422;2024-01-15T06:33:48;2.50;99.90
3492;DHT22;1760;52.480;13.422;2024-01-15T06:36:15;2.50;99.90
3492;DHT22;1760;52.480;13.422;2024-01-15T06:38:43;2.50;99.90
3492;DHT22;1760;52.480;13.422;2024-01-15T06:41:11;2.50;99.90
3492;DHT22;1760;52.480;13.422;2024-01-15T06:43:38;2.50;99.90
3492;DHT22;1760;52.480;13.422;2024-01-15T06:46:05;2.50;99.90
3492;DHT22;1760;52.480;13.422;2024-01-15T06:48:32;2.50;99.90
3492;DHT22;1760;52.480;13.422;2024-01-15T06:51:02;2.50;99.90
3492;DHT22;1760;52.480;13.422;2024-01-15T06:53:29;2.50;99.90
3492;DHT22;1760;52.480;13.422;2024-01-15T06:55:56;2.50;99.90
3492;DHT22;1760;52.480;13.422;2024-01-15T06:58:24;2.50;99.90
3492;DHT22;1760;52.480;13.422;2024-01-15T07:00:51;2.60;99.90
3492;DHT22;1760;52.480;13.422;2024-01-15T07:03:18;2.50;99.90
3492;DHT22;1760;52.480;13.422;2024-01-15T07:05:44;2.60;99.90
3492;DHT22;1760;52.480;13.422;2024-01-15T07:08:11;2.60;99.90
3492;DHT22;1760;52.480;13.422;2024-01-15T07:10:38;2.60;99.90
3492;DHT22;1760;52.480;13.422;2024-01-15T07:13:05;2.60;99.90
3492;DHT22;1760;52.480;13.422;2024-01-15T07:15:33;2.60;99.90
3492;DHT22;1760;52.480;13.422;2024-01-15T07:18:03;2.70;99.90
3492;DHT22;1760;52.480;13.422;2024-01-15T07:20:30;2.70;99.90
3492;DHT22;1760;52.480;13.422;2024-01-15T07:22:57;2.70;99.90
3492;DHT22;1760;52.480;13.422;2024-01-15T07:25:24;2.80;99.90
3492;DHT22;1760;52.480;13.422;2024-01-15T07:27:51;2.80;99.90
3492;DHT22;1760;52.480;13.422;2024-01-15T07:30:19;2.80;99.90
3492;DHT22;1760;52.480;13.422;2024-01-15T07:32:51;2.80;99.90
3492;DHT22;1760;52.480;13.422;2024-01-15T07:35:18;2.80;99.90
3492;DHT22;1760;52.480;13.422;2024-01-15T07:37:45;2.80;99.90
3492;DHT22;1760;52.480;13.422;2024-01-15T07:40:12;2.80;99.90
3492;DHT22;1760;52.480;13.422;2024-01-15T07:42:39;2.80;99.90
3492;DHT22;1760;52.480;13.422;2024-01-15T07:45:08;2.80;99.90
3492;DHT22;1760;52.480;13.422;2024-01-15T07:47:35;2.80;99.90
3492;DHT22;1760;52.480;13.422;2024-01-15T07:50:04;2.90;99.90
3492;DHT22;1760;52.480;13.422;2024-01-15T07:52:31;2.90;99.90
3492;DHT22;1760;52.480;13.422;2024-01-15T07:54:58;2.90;99.90
3492;DHT22;1760;52.480;13.422;2024-01-15T07:57:25;2.90;99.90
3492;DHT22;1760;52.480;13.422;2024-01-15T07:59:52;3.00;99.90
3492;DHT22;1760;52.480;13.422;2024-01-15T08:02:19;3.20;99.90
3492;DHT22;1760;52.480;13.422;2024-01-15T08:04:47;3.10;99.90
3492;DHT22;1760;52.480;13.422;2024-01-15T08:07:15;3.10;99.90
3492;DHT22;1760;52.480;13.422;2024-01-15T08:09:45;3.00;99.90
3492;DHT22;1760;52.480;13.422;2024-01-15T08:12:13;3.00;99.90
3492;DHT22;1760;52.480;13.422;2024-01-15T08:14:40;3.00;99.90
3492;DHT22;1760;52.480;13.422;2024-01-15T08:17:08;3.00;99.90
3492;DHT22;1760;52.480;13.422;2024-01-15T08:19:41;3.00;99.90
3492;DHT22;1760;52.480;13.422;2024-01-15T08:22:11;3.10;99.90
3492;DHT22;1760;52.480;13.422;2024-01-15T08:24:40;3.10;99.90
3492;DHT22;1760;52.480;13.422;2024-01-15T08:27:07;3.90;99.90
3492;DHT22;1760;52.480;13.422;2024-01-15T08:29:37;3.80;99.90
3492;DHT22;1760;52.480;13.422;2024-01-15T08:32:07;3.60;99.90
3492;DHT22;1760;52.480;13.422;2024-01-15T08:34:39;3.40;99.90
3492;DHT22;1760;52.480;13.422;2024-01-15T08:37:07;3.30;99.90
3492;DHT22;1760;52.480;13.422;2024-01-15T08:39:33;3.30;99.90
3492;DHT22;1760;52.480;13.422;2024-01-15T08:42:04;3.20;99.90
3492;DHT22;1760;52.480;13.422;2024-01-15T08:44:34;3.10;99.90
3492;DHT22;1760;52.480;13.422;2024-01-15T08:47:01;3.10;99.90
3492;DHT22;1760;52.480;13.422;2024-01-15T08:49:37;3.10;99.90
3492;DHT22;1760;52.480;13.422;2024-01-15T08:52:05;3.20;99.90
3492;DHT22;1760;52.480;13.422;2024-01-15T08:54:33;3.50;99.90
3492;DHT22;1760;52.480;13.422;2024-01-15T08:56:59;3.60;99.90
3492;DHT22;1760;52.480;13.422;2024-01-15T08:59:28;3.50;99.90
3492;DHT22;1760;52.480;13.422;2024-01-15T09:01:55;3.50;99.90
3492;DHT22;1760;52.480;13.422;2024-01-15T09:04:22;3.40;99.90
3492;DHT22;1760;52.480;13.422;2024-01-15T09:06:50;3.30;99.90
3492;DHT22;1760;52.480;13.422;2024-01-15T09:09:17;3.30;99.90
3492;DHT22;1760;52.480;13.422;2024-01-15T09:11:47;3.20;99.90
3492;DHT22;1760;52.480;13.422;2024-01-15T09:14:13;3.10;99.90
3492;DHT22;1760;52.480;13.422;2024-01-15T09:16:42;3.10;99.90
3492;DHT22;1760;52.480;13.422;2024-01-15T09:19:09;3.10;99.90
3492;DHT22;1760;52.480;13.422;2024-01-15T09:21:37;3.10;99.90
3492;DHT22;1760;52.480;13.422;2024-01-15T09:24:05;3.10;99.90
3492;DHT22;1760;52.480;13.422;2024-01-15T09:26:32;3.10;99.90
3492;DHT22;1760;52.480;13.422;2024-01-15T09:28:59;3.00;99.90
3492;DHT22;1760;52.480;13.422;2024-01-15T09:31:26;3.00;99.90
3492;DHT22;1760;52.480;13.422;2024-01-15T09:33:55;3.00;99.90
3492;DHT22;1760;52.480;13.422;2024-01-15T09:36:24;3.10;99.90
3492;DHT22;1760;52.480;13.422;2024-01-15T09:38:51;3.10;99.90
3492;DHT22;1760;52.480;13.422;2024-01-15T09:41:18;3.10;99.90
3492;DHT22;1760;52.480;13.422;2024-01-15T09:43:45;3.10;99.90
3492;DHT22;1760;52.480;13.422;2024-01-15T09:46:12;3.10;99.90
3492;DHT22;1760;52.480;13.422;2024-01-15T09:48:40;3.00;99.90
3492;DHT22;1760;52.480;13.422;2024-01-15T09:51:08;3.10;99.90
3492;DHT22;1760;52.480;13.422;2024-01-15T09:53:36;3.10;99.90
3492;DHT22;1760;52.480;13.422;2024-01-15T09:56:06;3.10;99.90
3492;DHT22;1760;52.480;13.422;2024-01-15T09:58:35;3.10;99.90
3492;DHT22;1760;52.480;13.422;2024-01-15T10:01:05;3.20;99.90
3492;DHT22;1760;52.480;13.422;2024-01-15T10:03:36;3.30;99.90
3492;DHT22;1760;52.480;13.422;2024-01-15T10:06:04;3.30;99.90
3492;DHT22;1760;52.480;13.422;2024-01-15T10:08:35;3.40;99.90
3492;DHT22;1760;52.480;13.422;2024-01-15T10:11:08;3.40;99.90
3492;DHT22;1760;52.480;13.422;2024-01-15T10:13:41;3.40;99.90
3492;DHT22;1760;52.480;13.422;2024-01-15T10:16:17;3.40;99.90
3492;DHT22;1760;52.480;13.422;2024-01-15T10:18:47;3.40;99.90
3492;DHT22;1760;52.480;13.422;2024-01-15T10:21:34;3.40;99.90
3492;DHT22;1760;52.480;13.422;2024-01-15T10:24:03;3.50;99.90
3492;DHT22;1760;52.480;13.422;2024-01-15T10:26:31;3.50;99.90
3492;DHT22;1760;52.480;13.422;2024-01-15T10:29:06;3.40;99.90
3492;DHT22;1760;52.480;13.422;2024-01-15T10:31:37;3.40;99.90
3492;DHT22;1760;52.480;13.422;2024-01-15T10:34:12;3.50;99.90
3492;DHT22;1760;52.480;13.422;2024-01-15T10:36:41;3.50;99.90
3492;DHT22;1760;52.480;13.422;2024-01-15T10:39:09;3.60;99.90
3492;DHT22;1760;52.480;13.422;2024-01-15T10:41:40;3.50;99.90
3492;DHT22;1760;52.480;13.422;2024-01-15T10:44:07;3.50;99.90
3492;DHT22;1760;52.480;13.422;2024-01-15T10:46:34;3.50;99.90
3492;DHT22;1760;52.480;13.422;2024-01-15T10:49:01;3.50;99.90
3492;DHT22;1760;52.480;13.422;2024-01-15T10:51:31;3.40;99.90
3492;DHT22;1760;52.480;13.422;2024-01-15T10:54:13;3.50;99.90
3492;DHT22;1760;52.480;13.422;2024-01-15T10:56:41;3.50;99.90
3492;DHT22;1760;52.480;13.422;2024-01-15T10:59:08;3.50;99.90
3492;DHT22;1760;52.480;13.422;2024-01-15T11:01:37;3.50;99.90
3492;DHT22;1760;52.480;13.422;2024-01-15T11:04:10;3.60;99.90
3492;DHT22;1760;52.480;13.422;2024-01-15T11:06:45;3.70;99.90
3492;DHT22;1760;52.480;13.422;2024-01-15T11:09:13;3.60;99.90
3492;DHT22;1760;52.480;13.422;2024-01-15T11:11:44;3.70;99.90
3492;DHT22;1760;52.480;13.422;2024-01-15T11:14:33;3.70;99.90
3492;DHT22;1760;52.480;13.422;2024-01-15T11:17:03;3.80;99.90
3492;DHT22;1760;52.480;13.422;2024-01-15T11:19:43;3.80;99.90
3492;DHT22;1760;52.480;13.422;2024-01-15T11:22:49;3.70;99.90
3492;DHT22;1760;52.480;13.422;2024-01-15T11:25:22;3.60;99.90
3492;DHT22;1760;52.480;13.422;2024-01-15T11:27:52;3.60;99.90
3492;DHT22;1760;52.480;13.422;2024-01-15T11:30:25;3.60;99.90
3492;DHT22;1760;52.480;13.422;2024-01-15T11:32:52;3.60;99.90
3492;DHT22;1760;52.480;13.422;2024-01-15T11:35:19;3.50;99.90
3492;DHT22;1760;52.480;13.422;2024-01-15T11:37:58;3.50;99.90
3492;DHT22;1760;52.480;13.422;2024-01-15T11:40:39;3.50;99.90
3492;DHT22;1760;52.480;13.422;2024-01-15T11:43:08;3.50;99.90
3492;DHT22;1760;52.480;13.422;2024-01-15T11:45:36;3.50;99.90
3492;DHT22;1760;52.480;13.422;2024-01-15T11:48:14;3.40;99.90
3492;DHT22;1760;52.480;13.422;2024-01-15T11:50:43;3.30;99.90
3492;DHT22;1760;52.480;13.422;2024-01-15T11:53:17;3.20;99.90
3492;DHT22;1760;52.480;13.422;2024-01-15T11:55:46;3.20;99.90
3492;DHT22;1760;52.480;13.422;2024-01-15T11:58:14;3.00;99.90
3492;DHT22;1760;52.480;13.422;2024-01-15T12:00:43;3.00;99.90
3492;DHT22;1760;52.480;13.422;2024-01-15T12:03:11;3.00;99.90
3492;DHT22;1760;52.480;13.422;2024-01-15T12:05:39;2.90;99.90
3492;DHT22;1760;52.480;13.422;2024-01-15T12:08:07;2.90;99.90
3492;DHT22;1760;52.480;13.422;2024-01-15T12:10:37;2.90;99.90
3492;DHT22;1760;52.480;13.422;2024-01-15T12:13:11;2.90;99.90
3492;DHT22;1760;52.480;13.422;2024-01-15T12:15:39;2.80;99.90
3492;DHT22;1760;52.480;13.422;2024-01-15T12:18:11;2.90;99.90
3492;DHT22;1760;52.480;13.422;2024-01-15T12:20:42;2.90;99.90
3492;DHT22;1760;52.480;13.422;2024-01-15T12:23:10;2.90;99.90
3492;DHT22;1760;52.480;13.422;2024-01-15T12:25:42;3.00;99.90
3492;DHT22;1760;52.480;13.422;2024-01-15T12:28:10;2.90;99.90
3492;DHT22;1760;52.480;13.422;2024-01-15T12:30:39;2.90;99.90
3492;DHT22;1760;52.480;13.422;2024-01-15T12:33:07;2.90;99.90
3492;DHT22;1760;52.480;13.422;2024-01-15T12:35:34;2.90;99.90
3492;DHT22;1760;52.480;13.422;2024-01-15T12:38:02;2.80;99.90
3492;DHT22;1760;52.480;13.422;2024-01-15T12:40:32;2.80;99.90
3492;DHT22;1760;52.480;13.422;2024-01-15T12:43:03;2.80;99.90
3492;DHT22;1760;52.480;13.422;2024-01-15T12:45:31;2.80;99.90
3492;DHT22;1760;52.480;13.422;2024-01-15T12:47:58;2.80;99.90
3492;DHT22;1760;52.480;13.422;2024-01-15T12:50:26;2.90;99.90
3492;DHT22;1760;52.480;13.422;2024-01-15T12:52:53;2.80;99.90
3492;DHT22;1760;52.480;13.422;2024-01-15T12:55:21;2.70;99.90
3492;DHT22;1760;52.480;13.422;2024-01-15T12:57:49;2.70;99.90
3492;DHT22;1760;52.480;13.422;2024-01-15T13:00:21;2.60;99.90
3492;DHT22;1760;52.480;13.422;2024-01-15T13:02:50;2.60;99.90
3492;DHT22;1760;52.480;13.422;2024-01-15T13:05:19;2.60;99.90
3492;DHT22;1760;52.480;13.422;2024-01-15T13:07:46;2.50;99.90
3492;DHT22;1760;52.480;13.422;2024-01-15T13:10:13;2.50;99.90
3492;DHT22;1760;52.480;13.422;2024-01-15T13:12:40;2.50;99.90
3492;DHT22;1760;52.480;13.422;2024-01-15T13:15:08;2.60;99.90
3492;DHT22;1760;52.480;13.422;2024-01-15T13:17:37;2.60;99.90
3492;DHT22;1760;52.480;13.422;2024-01-15T13:20:08;2.70;99.90
3492;DHT22;1760;52.480;13.422;2024-01-15T13:22:36;2.70;99.90
3492;DHT22;1760;52.480;13.422;2024-01-15T13:25:05;2.70;99.90
3492;DHT22;1760;52.480;13.422;2024-01-15T13:27:33;2.70;99.90
3492;DHT22;1760;52.480;13.422;2024-01-15T13:30:02;2.70;99.90
3492;DHT22;1760;52.480;13.422;2024-01-15T13:32:30;2.80;99.90
3492;DHT22;1760;52.480;13.422;2024-01-15T13:35:14;3.70;99.90
3492;DHT22;1760;52.480;13.422;2024-01-15T13:37:43;3.70;99.90
3492;DHT22;1760;52.480;13.422;2024-01-15T13:40:11;3.40;99.90
3492;DHT22;1760;52.480;13.422;2024-01-15T13:42:43;3.30;99.90
3492;DHT22;1760;52.480;13.422;2024-01-15T13:45:13;3.20;99.90
3492;DHT22;1760;52.480;13.422;2024-01-15T13:47:40;3.00;99.90
3492;DHT22;1760;52.480;13.422;2024-01-15T13:50:09;2.90;99.90
3492;DHT22;1760;52.480;13.422;2024-01-15T13:52:36;2.80;99.90
3492;DHT22;1760;52.480;13.422;2024-01-15T13:55:07;2.80;99.90
3492;DHT22;1760;52.480;13.422;2024-01-15T13:57:34;2.70;99.90
3492;DHT22;1760;52.480;13.422;2024-01-15T14:00:03;2.70;99.90
3492;DHT22;1760;52.480;13.422;2024-01-15T14:02:35;2.70;99.90
3492;DHT22;1760;52.480;13.422;2024-01-15T14:05:02;2.70;99.90
3492;DHT22;1760;52.480;13.422;2024-01-15T14:07:34;2.70;99.90
3492;DHT22;1760;52.480;13.422;2024-01-15T14:10:01;2.70;99.90
3492;DHT22;1760;52.480;13.422;2024-01-15T14:12:31;2.70;99.90
3492;DHT22;1760;52.480;13.422;2024-01-15T14:15:01;2.80;99.90
3492;DHT22;1760;52.480;13.422;2024-01-15T14:17:28;2.70;99.90
3492;DHT22;1760;52.480;13.422;2024-01-15T14:19:55;2.70;99.90
3492;DHT22;1760;52.480;13.422;2024-01-15T14:22:24;2.80;99.90
3492;DHT22;1760;52.480;13.422;2024-01-15T14:24:53;2.70;99.90
3492;DHT22;1760;52.480;13.422;2024-01-15T14:27:20;2.70;99.90
3492;DHT22;1760;52.480;13.422;2024-01-15T14:29:52;2.60;99.90
3492;DHT22;1760;52.480;13.422;2024-01-15T14:32:19;2.70;99.90
3492;DHT22;1760;52.480;13.422;2024-01-15T14:34:46;2.70;99.90
3492;DHT22;1760;52.480;13.422;2024-01-15T14:37:13;2.70;99.90
3492;DHT22;1760;52.480;13.422;2024-01-15T14:39:40;2.70;99.90
3492;DHT22;1760;52.480;13.422;2024-01-15T14:42:08;2.70;99.90
3492;DHT22;1760;52.480;13.422;2024-01-15T14:44:36;2.70;99.90
3492;DHT22;1760;52.480;13.422;2024-01-15T14:47:06;2.70;99.90
3492;DHT22;1760;52.480;13.422;2024-01-15T14:49:33;2.70;99.90
3492;DHT22;1760;52.480;13.422;2024-01-15T14:52:00;2.60;99.90
3492;DHT22;1760;52.480;13.422;2024-01-15T14:54:28;2.60;99.90
3492;DHT22;1760;52.480;13.422;2024-01-15T14:56:55;2.60;99.90
3492;DHT22;1760;52.480;13.422;2024-01-15T14:59:24;2.60;99.90
3492;DHT22;1760;52.480;13.422;2024-01-15T15:01:51;2.60;99.90
3492;DHT22;1760;52.480;13.422;2024-01-15T15:04:20;2.70;99.90
3492;DHT22;1760;52.480;13.422;2024-01-15T15:06:47;2.70;99.90
3492;DHT22;1760;52.480;13.422;2024-01-15T15:09:15;2.70;99.90
3492;DHT22;1760;52.480;13.422;2024-01-15T15:11:44;2.70;99.90
3492;DHT22;1760;52.480;13.422;2024-01-15T15:14:11;2.70;99.90
3492;DHT22;1760;52.480;13.422;2024-01-15T15:16:40;2.70;99.90
3492;DHT22;1760;52.480;13.422;2024-01-15T15:19:07;2.70;99.90
3492;DHT22;1760;52.480;13.422;2024-01-15T15:21:38;2.80;99.90
3492;DHT22;1760;52.480;13.422;2024-01-15T15:24:06;2.80;99.90
3492;DHT22;1760;52.480;13.422;2024-01-15T15:26:33;2.80;99.90
3492;DHT22;1760;52.480;13.422;2024-01-15T15:29:00;2.70;99.90
3492;DHT22;1760;52.480;13.422;2024-01-15T15:31:27;2.70;99.90
3492;DHT22;1760;52.480;13.422;2024-01-15T15:33:54;2.70;99.90
3492;DHT22;1760;52.480;13.422;2024-01-15T15:36:21;2.70;99.90
3492;DHT22;1760;52.480;13.422;2024-01-15T15:38:50;2.80;99.90
3492;DHT22;1760;52.480;13.422;2024-01-15T15:41:17;2.80;99.90
3492;DHT22;1760;52.480;13.422;2024-01-15T15:43:44;2.80;99.90
3492;DHT22;1760;52.480;13.422;2024-01-15T15:46:13;2.70;99.90
3492;DHT22;1760;52.480;13.422;2024-01-15T15:48:40;2.70;99.90
3492;DHT22;1760;52.480;13.422;2024-01-15T15:51:07;2.70;99.90
3492;DHT22;1760;52.480;13.422;2024-01-15T15:53:34;2.70;99.90
3492;DHT22;1760;52.480;13.422;2024-01-15T15:56:02;2.70;99.90
3492;DHT22;1760;52.480;13.422;2024-01-15T15:58:34;2.70;99.90
3492;DHT22;1760;52.480;13.422;2024-01-15T16:01:01;2.70;99.90
3492;DHT22;1760;52.480;13.422;2024-01-15T16:03:28;2.70;99.90
3492;DHT22;1760;52.480;13.422;2024-01-15T16:05:54;2.70;99.90
3492;DHT22;1760;52.480;13.422;2024-01-15T16:08:21;2.70;99.90